This is the latest recevied weather packets stored in our database for station/object KO4IDC-13. If no packets are shown the sender has not sent any weather packets the latest 10 day(s).
| Time | Temp. | Humidity | Pressure | Rain* | Wind** | Luminosity | Snow |
|---|---|---|---|---|---|---|---|
| 1777996974 | 15.56° C | 95% | 1011.9 hPa | 4.83 mm | - | 77 W/m² | - |
| 1777996670 | 15.56° C | 95% | 1012.2 hPa | 4.32 mm | - | 58 W/m² | - |
| 1777996366 | 15.56° C | 94% | 1012.4 hPa | 3.05 mm | - | 84 W/m² | - |
| 1777996062 | 15.56° C | 94% | 1012.1 hPa | 3.56 mm | - | 76 W/m² | - |
| 1777995759 | 15.56° C | 94% | 1012.1 hPa | 4.83 mm | - | 88 W/m² | - |
| 1777995455 | 15.56° C | 93% | 1011.8 hPa | 6.1 mm | - | 64 W/m² | - |
| 1777995153 | 15.56° C | 93% | 1012 hPa | 7.11 mm | - | 47 W/m² | - |
| 1777994850 | 15.56° C | 92% | 1011.8 hPa | 7.11 mm | - | 39 W/m² | - |
| 1777994546 | 16.11° C | 92% | 1011.9 hPa | 6.6 mm | - | 27 W/m² | - |
| 1777994246 | 16.11° C | 90% | 1012.3 hPa | 7.87 mm | - | 24 W/m² | - |
| 1777993944 | 17.22° C | 86% | 1012.2 hPa | 4.32 mm | - | 18 W/m² | - |
| 1777993641 | 18.33° C | 78% | 1012 hPa | 0 mm | - | 19 W/m² | - |
| 1777993338 | 18.89° C | 73% | 1011.9 hPa | 0 mm | - | 15 W/m² | - |
| 1777993038 | 18.89° C | 72% | 1011.7 hPa | 0 mm | - | 23 W/m² | - |
| 1777992737 | 18.89° C | 71% | 1011.5 hPa | 0 mm | - | 63 W/m² | - |
| 1777992434 | 18.89° C | 71% | 1011.3 hPa | 0 mm | - | 61 W/m² | - |
| 1777992132 | 18.89° C | 70% | 1011.3 hPa | 0 mm | - | 119 W/m² | - |
| 1777991829 | 18.33° C | 71% | 1011.3 hPa | 0 mm | - | 105 W/m² | - |
| 1777991526 | 18.33° C | 70% | 1011.2 hPa | 0 mm | - | 135 W/m² | - |
| 1777991223 | 18.33° C | 71% | 1010.7 hPa | 0 mm | - | 149 W/m² | - |
| 1777990920 | 18.33° C | 71% | 1011 hPa | 0 mm | - | 98 W/m² | - |
| 1777990618 | 18.33° C | 71% | 1011 hPa | 0 mm | - | 54 W/m² | - |
| 1777990011 | 18.33° C | 71% | 1011.1 hPa | 0 mm | - | 107 W/m² | - |
| 1777989708 | 18.33° C | 71% | 1011 hPa | 0 mm | - | 112 W/m² | - |
| 1777989404 | 18.33° C | 70% | 1011.1 hPa | 0 mm | - | 124 W/m² | - |
* Rain latest hour (hover to see other rain measurements)
** Current wind speed in m/s (hover to see current wind gust speed)